Time;durP1;ratioP1;P1;durP2;ratioP2;P2;SDS_P1;SDS_P2;PMS_P1;PMS_P2;Temp;Humidity;BMP_temperature;BMP_pressure;BME280_temperature;BME280_humidity;BME280_pressure;Samples;Min_cycle;Max_cycle;Signal;HPM_P1;HPM_P2
2022/06/12 00:00:09;;;;;;;;;;;;;;;;;;344588;28;1077;-75
2022/06/12 00:00:23;;;;;;;;;;;;;;;;;;344655;28;766;-75
2022/06/12 00:00:33;;;;;;;;;;;;;;;;;;344630;28;961;-74
2022/06/12 00:00:44;;;;;;;;;;;;;;;;;;344665;28;996;-74
2022/06/12 00:00:54;;;;;;;;;;;;;;;;;;344644;28;1005;-74
2022/06/12 00:01:05;;;;;;;;;;;;;;;;;;344688;28;909;-74
2022/06/12 00:01:16;;;;;;;;;;;;;;;;;;344608;28;988;-74
2022/06/12 00:01:26;;;;;;;;;;;;;;;;;;344699;28;988;-75
2022/06/12 00:01:36;;;;;;;;;;;;;;;;;;344629;28;972;-74
2022/06/12 00:01:46;;;;;;;;;;;;;;;;;;344654;28;759;-75
2022/06/12 00:01:57;;;;;;;;;;;;;;;;;;344630;28;918;-75
2022/06/12 00:02:07;;;;;;;;;;;;;;;;;;344682;28;871;-75
2022/06/12 00:02:17;;;;;;;;;;;;;;;;;;344670;28;865;-74
2022/06/12 00:02:27;;;;;;;;;;;;;;;;;;344593;28;804;-75
2022/06/12 00:02:38;;;;;;;;;;;;;;;;;;344665;28;913;-74
2022/06/12 00:02:48;;;;;;;;;;;;;;;;;;344618;28;1006;-74
2022/06/12 00:02:59;;;;;;;;;;;;;;;;;;344633;28;973;-75
2022/06/12 00:03:12;;;;;;;;;;;;;;;;;;344398;28;1294;-74
2022/06/12 00:03:25;;;;;;;;;;;;;;;;;;344646;28;897;-74
2022/06/12 00:03:36;;;;;;;;;;;;;;;;;;344565;28;1041;-74
2022/06/12 00:03:47;;;;;;;;;;;;;;;;;;344697;28;822;-75
2022/06/12 00:03:58;;;;;;;;;;;;;;;;;;344629;28;798;-74
2022/06/12 00:04:08;;;;;;;;;;;;;;;;;;344647;28;1207;-75
2022/06/12 00:04:18;;;;;;;;;;;;;;;;;;344633;28;861;-75
2022/06/12 00:04:29;;;;;;;;;;;;;;;;;;344679;28;838;-74
2022/06/12 00:04:39;;;;;;;;;;;;;;;;;;344614;28;906;-74
2022/06/12 00:04:49;;;;;;;;;;;;;;;;;;344593;28;756;-74
2022/06/12 00:05:00;;;;;;;;;;;;;;;;;;344657;28;968;-74
2022/06/12 00:05:11;;;;;;;;;;;;;;;;;;344699;28;796;-74
2022/06/12 00:05:22;;;;;;;;;;;;;;;;;;344664;28;1345;-74
2022/06/12 00:05:34;;;;;;;;;;;;;;;;;;344565;28;1361;-75
2022/06/12 00:05:46;;;;;;;;;;;;;;;;;;344653;28;956;-74
2022/06/12 00:05:56;;;;;;;;;;;;;;;;;;344455;28;1577;-74
2022/06/12 00:06:07;;;;;;;;;;;;;;;;;;344638;28;925;-74
2022/06/12 00:06:18;;;;;;;;;;;;;;;;;;344665;28;858;-75
2022/06/12 00:06:28;;;;;;;;;;;;;;;;;;344644;28;921;-75
2022/06/12 00:06:38;;;;;;;;;;;;;;;;;;344594;28;905;-75
2022/06/12 00:06:49;;;;;;;;;;;;;;;;;;344668;28;833;-74
2022/06/12 00:06:59;;;;;;;;;;;;;;;;;;344683;28;929;-74
2022/06/12 00:07:10;;;;;;;;;;;;;;;;;;344658;28;846;-75
2022/06/12 00:07:20;;;;;;;;;;;;;;;;;;344214;28;1639;-75
2022/06/12 00:07:30;;;;;;;;;;;;;;;;;;344266;28;1494;-75
2022/06/12 00:07:41;;;;;;;;;;;;;;;;;;344464;28;1728;-75
2022/06/12 00:07:51;;;;;;;;;;;;;;;;;;344604;28;1236;-75
2022/06/12 00:08:02;;;;;;;;;;;;;;;;;;344613;28;988;-75
2022/06/12 00:08:13;;;;;;;;;;;;;;;;;;344604;28;962;-75
2022/06/12 00:08:23;;;;;;;;;;;;;;;;;;344136;28;1322;-75
2022/06/12 00:08:35;;;;;;;;;;;;;;;;;;344427;28;1347;-75
2022/06/12 00:08:46;;;;;;;;;;;;;;;;;;344654;28;984;-75
2022/06/12 00:08:56;;;;;;;;;;;;;;;;;;344663;28;782;-75
2022/06/12 00:09:06;;;;;;;;;;;;;;;;;;344657;28;936;-75
2022/06/12 00:09:16;;;;;;;;;;;;;;;;;;344610;28;909;-75
2022/06/12 00:09:27;;;;;;;;;;;;;;;;;;344668;28;905;-74
2022/06/12 00:09:37;;;;;;;;;;;;;;;;;;344618;28;925;-75
2022/06/12 00:09:47;;;;;;;;;;;;;;;;;;344611;28;1060;-75
2022/06/12 00:09:57;;;;;;;;;;;;;;;;;;344664;28;918;-75
2022/06/12 00:10:08;;;;;;;;;;;;;;;;;;344549;28;1016;-74
2022/06/12 00:10:19;;;;;;;;;;;;;;;;;;344698;28;782;-75
2022/06/12 00:10:29;;;;;;;;;;;;;;;;;;344689;28;992;-75
2022/06/12 00:10:41;;;;;;;;;;;;;;;;;;344506;28;1902;-75
2022/06/12 00:10:53;;;;;;;;;;;;;;;;;;344371;28;1280;-75
2022/06/12 00:11:05;;;;;;;;;;;;;;;;;;344667;28;933;-75
2022/06/12 00:11:16;;;;;;;;;;;;;;;;;;344694;28;937;-75
2022/06/12 00:11:27;;;;;;;;;;;;;;;;;;344637;28;822;-75
2022/06/12 00:11:37;;;;;;;;;;;;;;;;;;344662;28;953;-75
2022/06/12 00:11:47;;;;;;;;;;;;;;;;;;344621;28;917;-75
2022/06/12 00:11:58;;;;;;;;;;;;;;;;;;344634;28;917;-75
2022/06/12 00:12:08;;;;;;;;;;;;;;;;;;344632;28;984;-75
2022/06/12 00:12:19;;;;;;;;;;;;;;;;;;344514;28;942;-75
2022/06/12 00:12:29;;;;;;;;;;;;;;;;;;344644;28;904;-75
2022/06/12 00:12:40;;;;;;;;;;;;;;;;;;344685;28;854;-75
2022/06/12 00:12:51;;;;;;;;;;;;;;;;;;344649;28;963;-75
2022/06/12 00:13:01;;;;;;;;;;;;;;;;;;344596;28;1013;-75
2022/06/12 00:13:13;;;;;;;;;;;;;;;;;;344676;28;980;-75
2022/06/12 00:13:26;;;;;;;;;;;;;;;;;;344616;28;1072;-75
2022/06/12 00:13:41;;;;;;;;;;;;;;;;;;344600;28;980;-74
2022/06/12 00:13:54;;;;;;;;;;;;;;;;;;344474;28;1108;-75
2022/06/12 00:14:04;;;;;;;;;;;;;;;;;;344638;28;869;-75
2022/06/12 00:14:15;;;;;;;;;;;;;;;;;;344634;28;1106;-75
2022/06/12 00:14:25;;;;;;;;;;;;;;;;;;344632;28;917;-75
2022/06/12 00:14:36;;;;;;;;;;;;;;;;;;344571;28;1195;-75
2022/06/12 00:14:46;;;;;;;;;;;;;;;;;;344609;28;1011;-74
2022/06/12 00:14:57;;;;;;;;;;;;;;;;;;344687;28;1004;-75
2022/06/12 00:15:09;;;;;;;;;;;;;;;;;;344602;28;1202;-75
2022/06/12 00:15:22;;;;;;;;;;;;;;;;;;344537;28;933;-75
2022/06/12 00:15:32;;;;;;;;;;;;;;;;;;344621;28;881;-76
2022/06/12 00:15:42;;;;;;;;;;;;;;;;;;344559;28;970;-75
2022/06/12 00:15:53;;;;;;;;;;;;;;;;;;344605;28;785;-75
2022/06/12 00:16:04;;;;;;;;;;;;;;;;;;344576;28;1352;-75
2022/06/12 00:16:15;;;;;;;;;;;;;;;;;;344378;28;1154;-75
2022/06/12 00:16:26;;;;;;;;;;;;;;;;;;344577;28;949;-75
2022/06/12 00:16:40;;;;;;;;;;;;;;;;;;344614;28;886;-74
2022/06/12 00:16:52;;;;;;;;;;;;;;;;;;344613;28;1001;-75
2022/06/12 00:17:03;;;;;;;;;;;;;;;;;;344578;28;972;-75
2022/06/12 00:17:13;;;;;;;;;;;;;;;;;;344670;28;980;-75
2022/06/12 00:17:23;;;;;;;;;;;;;;;;;;344660;28;794;-75
2022/06/12 00:17:33;;;;;;;;;;;;;;;;;;344584;28;937;-75
2022/06/12 00:17:44;;;;;;;;;;;;;;;;;;344673;28;897;-75
2022/06/12 00:17:54;;;;;;;;;;;;;;;;;;344610;28;988;-75
2022/06/12 00:18:05;;;;;;;;;;;;;;;;;;344623;28;853;-75
2022/06/12 00:18:15;;;;;;;;;;;;;;;;;;344549;28;1097;-75
2022/06/12 00:18:26;;;;;;;;;;;;;;;;;;344170;28;1349;-75
2022/06/12 00:18:37;;;;;;;;;;;;;;;;;;344319;28;1324;-75
2022/06/12 00:18:47;;;;;;;;;;;;;;;;;;344666;28;881;-75
2022/06/12 00:18:57;;;;;;;;;;;;;;;;;;344591;28;870;-75
2022/06/12 00:19:08;;;;;;;;;;;;;;;;;;344601;28;936;-75
2022/06/12 00:19:18;;;;;;;;;;;;;;;;;;344625;28;974;-75
2022/06/12 00:19:30;;;;;;;;;;;;;;;;;;344670;28;893;-75
2022/06/12 00:19:44;;;;;;;;;;;;;;;;;;344545;28;1063;-75
2022/06/12 00:19:54;;;;;;;;;;;;;;;;;;344605;28;992;-75
2022/06/12 00:20:05;;;;;;;;;;;;;;;;;;344600;28;1101;-75
2022/06/12 00:20:16;;;;;;;;;;;;;;;;;;344574;28;1036;-75
2022/06/12 00:20:27;;;;;;;;;;;;;;;;;;344601;28;972;-75
2022/06/12 00:20:37;;;;;;;;;;;;;;;;;;344577;28;976;-75
2022/06/12 00:20:47;;;;;;;;;;;;;;;;;;344647;28;997;-75
2022/06/12 00:21:16;;;;;;;;;;;;;;;;;;344669;28;914;-75
2022/06/12 00:21:27;;;;;;;;;;;;;;;;;;344676;28;949;-75
2022/06/12 00:21:37;;;;;;;;;;;;;;;;;;344578;28;949;-75
2022/06/12 00:21:48;;;;;;;;;;;;;;;;;;344621;28;941;-75
2022/06/12 00:21:58;;;;;;;;;;;;;;;;;;344572;28;1008;-75
2022/06/12 00:22:08;;;;;;;;;;;;;;;;;;344592;28;949;-75
2022/06/12 00:22:19;;;;;;;;;;;;;;;;;;344607;28;996;-75
2022/06/12 00:22:29;;;;;;;;;;;;;;;;;;344652;28;791;-75
2022/06/12 00:22:39;;;;;;;;;;;;;;;;;;344532;28;956;-75
2022/06/12 00:22:50;;;;;;;;;;;;;;;;;;344680;28;795;-75
2022/06/12 00:23:05;;;;;;;;;;;;;;;;;;343770;28;1643;-75
2022/06/12 00:23:16;;;;;;;;;;;;;;;;;;344461;28;1791;-75
2022/06/12 00:23:26;;;;;;;;;;;;;;;;;;343505;28;1536;-75
2022/06/12 00:23:38;;;;;;;;;;;;;;;;;;344605;28;794;-75
2022/06/12 00:23:51;;;;;;;;;;;;;;;;;;344642;28;933;-75
2022/06/12 00:24:06;;;;;;;;;;;;;;;;;;344557;28;910;-75
2022/06/12 00:24:18;;;;;;;;;;;;;;;;;;344638;28;838;-75
2022/06/12 00:24:28;;;;;;;;;;;;;;;;;;344551;28;909;-75
2022/06/12 00:24:39;;;;;;;;;;;;;;;;;;344647;28;901;-75
2022/06/12 00:24:49;;;;;;;;;;;;;;;;;;344544;28;965;-75
2022/06/12 00:24:59;;;;;;;;;;;;;;;;;;344612;28;1082;-75
2022/06/12 00:25:12;;;;;;;;;;;;;;;;;;344630;28;926;-75
2022/06/12 00:25:24;;;;;;;;;;;;;;;;;;344586;28;921;-74
2022/06/12 00:25:35;;;;;;;;;;;;;;;;;;344025;28;1366;-75
2022/06/12 00:25:45;;;;;;;;;;;;;;;;;;344588;28;933;-75
2022/06/12 00:25:55;;;;;;;;;;;;;;;;;;344678;28;938;-75
2022/06/12 00:26:05;;;;;;;;;;;;;;;;;;344597;28;969;-75
2022/06/12 00:26:20;;;;;;;;;;;;;;;;;;344621;28;908;-75
2022/06/12 00:26:35;;;;;;;;;;;;;;;;;;344628;28;1000;-75
2022/06/12 00:26:48;;;;;;;;;;;;;;;;;;344619;28;797;-75
2022/06/12 00:26:59;;;;;;;;;;;;;;;;;;344614;28;933;-75
2022/06/12 00:27:09;;;;;;;;;;;;;;;;;;344609;28;948;-75
2022/06/12 00:27:19;;;;;;;;;;;;;;;;;;344620;28;941;-75
2022/06/12 00:27:29;;;;;;;;;;;;;;;;;;344608;28;957;-75
2022/06/12 00:27:40;;;;;;;;;;;;;;;;;;344420;28;1097;-75
2022/06/12 00:27:51;;;;;;;;;;;;;;;;;;344615;28;996;-75
2022/06/12 00:28:02;;;;;;;;;;;;;;;;;;344415;28;1135;-75
2022/06/12 00:28:12;;;;;;;;;;;;;;;;;;344631;28;846;-75
2022/06/12 00:28:22;;;;;;;;;;;;;;;;;;344626;28;906;-75
2022/06/12 00:28:32;;;;;;;;;;;;;;;;;;343876;28;1363;-75
2022/06/12 00:28:42;;;;;;;;;;;;;;;;;;344366;28;993;-75
2022/06/12 00:29:00;;;;;;;;;;;;;;;;;;344376;28;961;-76
2022/06/12 00:29:16;;;;;;;;;;;;;;;;;;344578;28;996;-74
2022/06/12 00:29:28;;;;;;;;;;;;;;;;;;344613;28;913;-75
2022/06/12 00:29:39;;;;;;;;;;;;;;;;;;344556;28;929;-75
2022/06/12 00:29:50;;;;;;;;;;;;;;;;;;344647;28;969;-75
2022/06/12 00:30:00;;;;;;;;;;;;;;;;;;344616;28;832;-75
2022/06/12 00:30:12;;;;;;;;;;;;;;;;;;344660;28;956;-75
2022/06/12 00:30:23;;;;;;;;;;;;;;;;;;343909;28;1580;-75
2022/06/12 00:30:34;;;;;;;;;;;;;;;;;;344624;28;780;-74
2022/06/12 00:30:44;;;;;;;;;;;;;;;;;;344576;28;1971;-75
2022/06/12 00:30:54;;;;;;;;;;;;;;;;;;344633;28;788;-75
2022/06/12 00:31:05;;;;;;;;;;;;;;;;;;344528;28;983;-75
2022/06/12 00:31:16;;;;;;;;;;;;;;;;;;344629;28;945;-75
2022/06/12 00:31:27;;;;;;;;;;;;;;;;;;344644;28;949;-75
2022/06/12 00:31:39;;;;;;;;;;;;;;;;;;344654;28;794;-75
2022/06/12 00:31:54;;;;;;;;;;;;;;;;;;344564;28;1000;-75
2022/06/12 00:32:09;;;;;;;;;;;;;;;;;;344594;28;987;-75
2022/06/12 00:32:19;;;;;;;;;;;;;;;;;;344622;28;996;-74
2022/06/12 00:32:30;;;;;;;;;;;;;;;;;;344427;28;1041;-75
2022/06/12 00:32:42;;;;;;;;;;;;;;;;;;344576;28;850;-75
2022/06/12 00:32:54;;;;;;;;;;;;;;;;;;344608;28;933;-75
2022/06/12 00:33:05;;;;;;;;;;;;;;;;;;344455;28;1096;-74
2022/06/12 00:33:15;;;;;;;;;;;;;;;;;;344578;28;979;-75
2022/06/12 00:33:26;;;;;;;;;;;;;;;;;;344642;28;909;-75
2022/06/12 00:33:36;;;;;;;;;;;;;;;;;;344417;28;1219;-74
2022/06/12 00:33:46;;;;;;;;;;;;;;;;;;344621;28;909;-75
2022/06/12 00:33:57;;;;;;;;;;;;;;;;;;344549;28;1072;-75
2022/06/12 00:34:07;;;;;;;;;;;;;;;;;;344556;28;933;-75
2022/06/12 00:34:19;;;;;;;;;;;;;;;;;;344421;28;1071;-75
2022/06/12 00:34:32;;;;;;;;;;;;;;;;;;344615;28;970;-75
2022/06/12 00:34:49;;;;;;;;;;;;;;;;;;344399;28;1017;-75
2022/06/12 00:34:59;;;;;;;;;;;;;;;;;;344637;28;1000;-75
2022/06/12 00:35:09;;;;;;;;;;;;;;;;;;344503;28;960;-75
2022/06/12 00:35:23;;;;;;;;;;;;;;;;;;344427;28;1144;-75
2022/06/12 00:35:35;;;;;;;;;;;;;;;;;;344552;28;929;-74
2022/06/12 00:35:45;;;;;;;;;;;;;;;;;;344599;28;1038;-75
2022/06/12 00:35:55;;;;;;;;;;;;;;;;;;344637;28;847;-75
2022/06/12 00:36:05;;;;;;;;;;;;;;;;;;344654;28;906;-75
2022/06/12 00:36:16;;;;;;;;;;;;;;;;;;344526;28;850;-75
2022/06/12 00:36:26;;;;;;;;;;;;;;;;;;344599;28;1024;-75
2022/06/12 00:36:36;;;;;;;;;;;;;;;;;;344683;28;894;-75
2022/06/12 00:36:46;;;;;;;;;;;;;;;;;;344627;28;956;-75
2022/06/12 00:36:57;;;;;;;;;;;;;;;;;;344575;28;1094;-75
2022/06/12 00:37:07;;;;;;;;;;;;;;;;;;344613;28;842;-75
2022/06/12 00:37:19;;;;;;;;;;;;;;;;;;344602;28;987;-75
2022/06/12 00:37:31;;;;;;;;;;;;;;;;;;344620;28;929;-75
2022/06/12 00:37:41;;;;;;;;;;;;;;;;;;344588;28;960;-75
2022/06/12 00:37:52;;;;;;;;;;;;;;;;;;344588;28;1056;-75
2022/06/12 00:38:02;;;;;;;;;;;;;;;;;;344642;28;833;-76
2022/06/12 00:38:13;;;;;;;;;;;;;;;;;;344553;28;988;-75
2022/06/12 00:38:23;;;;;;;;;;;;;;;;;;344565;28;981;-75
2022/06/12 00:38:33;;;;;;;;;;;;;;;;;;343862;28;1345;-75
2022/06/12 00:38:44;;;;;;;;;;;;;;;;;;344659;28;786;-75
2022/06/12 00:38:54;;;;;;;;;;;;;;;;;;344635;28;1020;-75
2022/06/12 00:39:05;;;;;;;;;;;;;;;;;;344568;28;991;-75
2022/06/12 00:39:15;;;;;;;;;;;;;;;;;;344578;28;996;-76
2022/06/12 00:39:26;;;;;;;;;;;;;;;;;;344583;28;854;-75
2022/06/12 00:39:37;;;;;;;;;;;;;;;;;;344549;28;1024;-75
2022/06/12 00:39:49;;;;;;;;;;;;;;;;;;344583;28;936;-75
2022/06/12 00:39:59;;;;;;;;;;;;;;;;;;344587;28;1027;-75
2022/06/12 00:40:10;;;;;;;;;;;;;;;;;;344653;28;813;-75
2022/06/12 00:40:20;;;;;;;;;;;;;;;;;;344601;28;901;-75
2022/06/12 00:40:30;;;;;;;;;;;;;;;;;;344640;28;832;-75
2022/06/12 00:40:40;;;;;;;;;;;;;;;;;;344652;28;909;-75
2022/06/12 00:40:51;;;;;;;;;;;;;;;;;;344645;28;932;-75
2022/06/12 00:41:01;;;;;;;;;;;;;;;;;;344620;28;928;-75
2022/06/12 00:41:11;;;;;;;;;;;;;;;;;;344624;28;884;-75
2022/06/12 00:41:23;;;;;;;;;;;;;;;;;;344580;28;865;-75
2022/06/12 00:41:33;;;;;;;;;;;;;;;;;;344574;28;932;-75
2022/06/12 00:41:44;;;;;;;;;;;;;;;;;;344612;28;873;-75
2022/06/12 00:41:56;;;;;;;;;;;;;;;;;;344647;28;987;-75
2022/06/12 00:42:08;;;;;;;;;;;;;;;;;;344661;28;992;-75
2022/06/12 00:42:21;;;;;;;;;;;;;;;;;;344557;28;920;-75
2022/06/12 00:42:35;;;;;;;;;;;;;;;;;;344535;28;1184;-75
2022/06/12 00:42:50;;;;;;;;;;;;;;;;;;344602;28;948;-75
2022/06/12 00:43:01;;;;;;;;;;;;;;;;;;344567;28;925;-75
2022/06/12 00:43:13;;;;;;;;;;;;;;;;;;344653;28;936;-75
2022/06/12 00:43:27;;;;;;;;;;;;;;;;;;344636;28;944;-75
2022/06/12 00:43:38;;;;;;;;;;;;;;;;;;344549;28;992;-75
2022/06/12 00:43:48;;;;;;;;;;;;;;;;;;344604;28;928;-75
2022/06/12 00:43:59;;;;;;;;;;;;;;;;;;344626;28;933;-75
2022/06/12 00:44:13;;;;;;;;;;;;;;;;;;344538;28;996;-75
2022/06/12 00:44:27;;;;;;;;;;;;;;;;;;344635;28;840;-75
2022/06/12 00:44:40;;;;;;;;;;;;;;;;;;344536;28;1025;-75
2022/06/12 00:44:51;;;;;;;;;;;;;;;;;;344615;28;850;-76
2022/06/12 00:45:21;;;;;;;;;;;;;;;;;;344634;28;842;-75
2022/06/12 00:45:47;;;;;;;;;;;;;;;;;;344349;28;1102;-74
2022/06/12 00:46:01;;;;;;;;;;;;;;;;;;344629;28;1032;-75
2022/06/12 00:46:31;;;;;;;;;;;;;;;;;;344565;28;889;-75
2022/06/12 00:46:48;;;;;;;;;;;;;;;;;;344550;28;1225;-75
2022/06/12 00:47:03;;;;;;;;;;;;;;;;;;344578;28;1031;-75
2022/06/12 00:47:14;;;;;;;;;;;;;;;;;;344480;28;1132;-75
2022/06/12 00:47:25;;;;;;;;;;;;;;;;;;344570;28;988;-75
2022/06/12 00:47:35;;;;;;;;;;;;;;;;;;344517;28;940;-75
2022/06/12 00:47:45;;;;;;;;;;;;;;;;;;344582;28;944;-75
2022/06/12 00:47:56;;;;;;;;;;;;;;;;;;344595;28;842;-75
2022/06/12 00:48:09;;;;;;;;;;;;;;;;;;344603;28;992;-75
2022/06/12 00:48:23;;;;;;;;;;;;;;;;;;344572;28;858;-75
2022/06/12 00:48:35;;;;;;;;;;;;;;;;;;343895;28;1310;-74
2022/06/12 00:48:45;;;;;;;;;;;;;;;;;;344253;28;1011;-75
2022/06/12 00:48:56;;;;;;;;;;;;;;;;;;344545;28;949;-75
2022/06/12 00:49:11;;;;;;;;;;;;;;;;;;343970;28;1365;-75
2022/06/12 00:49:30;;;;;;;;;;;;;;;;;;344578;28;1003;-75
2022/06/12 00:49:52;;;;;;;;;;;;;;;;;;344508;28;929;-75
2022/06/12 00:50:05;;;;;;;;;;;;;;;;;;344616;28;940;-75
2022/06/12 00:50:15;;;;;;;;;;;;;;;;;;344553;28;933;-75
2022/06/12 00:50:25;;;;;;;;;;;;;;;;;;344612;28;940;-75
2022/06/12 00:50:39;;;;;;;;;;;;;;;;;;344506;28;1032;-75
2022/06/12 00:51:02;;;;;;;;;;;;;;;;;;344610;28;913;-75
2022/06/12 00:51:16;;;;;;;;;;;;;;;;;;344563;28;800;-75
2022/06/12 00:51:26;;;;;;;;;;;;;;;;;;344568;28;1040;-74
2022/06/12 00:51:37;;;;;;;;;;;;;;;;;;344568;28;988;-74
2022/06/12 00:51:49;;;;;;;;;;;;;;;;;;344518;28;988;-75
2022/06/12 00:52:03;;;;;;;;;;;;;;;;;;344602;28;919;-75
2022/06/12 00:52:16;;;;;;;;;;;;;;;;;;344634;28;1004;-75
2022/06/12 00:52:32;;;;;;;;;;;;;;;;;;344564;28;925;-75
2022/06/12 00:52:45;;;;;;;;;;;;;;;;;;344542;28;928;-75
2022/06/12 00:52:57;;;;;;;;;;;;;;;;;;344610;28;1008;-75
2022/06/12 00:53:11;;;;;;;;;;;;;;;;;;343748;28;1591;-75
2022/06/12 00:53:23;;;;;;;;;;;;;;;;;;344177;28;1728;-75
2022/06/12 00:53:37;;;;;;;;;;;;;;;;;;344496;28;1032;-75
2022/06/12 00:53:50;;;;;;;;;;;;;;;;;;344568;28;1015;-75
2022/06/12 00:54:00;;;;;;;;;;;;;;;;;;344475;28;910;-75
2022/06/12 00:54:11;;;;;;;;;;;;;;;;;;344602;28;881;-75
2022/06/12 00:54:22;;;;;;;;;;;;;;;;;;344591;28;937;-75
2022/06/12 00:54:33;;;;;;;;;;;;;;;;;;344583;28;766;-75
2022/06/12 00:54:46;;;;;;;;;;;;;;;;;;344601;28;786;-75
2022/06/12 00:55:05;;;;;;;;;;;;;;;;;;344573;28;945;-75
2022/06/12 00:55:27;;;;;;;;;;;;;;;;;;344588;28;1000;-75
2022/06/12 00:55:48;;;;;;;;;;;;;;;;;;344537;28;774;-75
2022/06/12 00:56:05;;;;;;;;;;;;;;;;;;344390;28;1256;-75
2022/06/12 00:56:18;;;;;;;;;;;;;;;;;;344599;28;933;-75
2022/06/12 00:56:34;;;;;;;;;;;;;;;;;;344582;28;1008;-76
2022/06/12 00:56:47;;;;;;;;;;;;;;;;;;344620;28;999;-75
2022/06/12 00:56:59;;;;;;;;;;;;;;;;;;344500;28;960;-75
2022/06/12 00:57:09;;;;;;;;;;;;;;;;;;344499;28;974;-75
2022/06/12 00:57:21;;;;;;;;;;;;;;;;;;344529;28;1052;-75
2022/06/12 00:57:32;;;;;;;;;;;;;;;;;;344665;28;901;-76
2022/06/12 00:57:42;;;;;;;;;;;;;;;;;;344550;28;921;-75
2022/06/12 00:57:56;;;;;;;;;;;;;;;;;;344428;28;970;-76
2022/06/12 00:58:12;;;;;;;;;;;;;;;;;;344510;28;821;-75
2022/06/12 00:58:23;;;;;;;;;;;;;;;;;;344576;28;816;-75
2022/06/12 00:58:37;;;;;;;;;;;;;;;;;;343930;28;1320;-75
2022/06/12 00:58:50;;;;;;;;;;;;;;;;;;343261;28;965;-75
2022/06/12 00:59:03;;;;;;;;;;;;;;;;;;343221;28;1059;-75
2022/06/12 00:59:15;;;;;;;;;;;;;;;;;;343300;28;957;-75
2022/06/12 00:59:35;;;;;;;;;;;;;;;;;;343195;28;921;-75
2022/06/12 00:59:50;;;;;;;;;;;;;;;;;;343166;28;1127;-75
2022/06/12 01:00:07;;;;;;;;;;;;;;;;;;343199;28;962;-74
2022/06/12 01:00:17;;;;;;;;;;;;;;;;;;343220;28;1005;-75
2022/06/12 01:00:28;;;;;;;;;;;;;;;;;;343173;28;1024;-75
2022/06/12 01:00:38;;;;;;;;;;;;;;;;;;343280;28;862;-75
2022/06/12 01:00:49;;;;;;;;;;;;;;;;;;343205;28;1000;-75
2022/06/12 01:01:01;;;;;;;;;;;;;;;;;;343197;28;937;-75
2022/06/12 01:01:18;;;;;;;;;;;;;;;;;;343233;28;862;-75
2022/06/12 01:01:39;;;;;;;;;;;;;;;;;;343247;28;980;-75
2022/06/12 01:01:51;;;;;;;;;;;;;;;;;;343185;28;954;-75
2022/06/12 01:02:02;;;;;;;;;;;;;;;;;;343231;28;941;-75
2022/06/12 01:02:16;;;;;;;;;;;;;;;;;;343191;28;937;-74
2022/06/12 01:02:29;;;;;;;;;;;;;;;;;;343226;28;940;-75
2022/06/12 01:02:40;;;;;;;;;;;;;;;;;;343251;28;1028;-74
2022/06/12 01:02:50;;;;;;;;;;;;;;;;;;343190;28;929;-75
2022/06/12 01:03:01;;;;;;;;;;;;;;;;;;343259;28;933;-74
2022/06/12 01:03:11;;;;;;;;;;;;;;;;;;343276;28;929;-75
2022/06/12 01:03:22;;;;;;;;;;;;;;;;;;343295;28;835;-75
2022/06/12 01:06:33;;;;;;;;;;;;;;;;;;343260;28;842;-75
2022/06/12 01:06:35;;;;;;;;;;;;;;;;;;343176;28;945;-75
2022/06/12 01:06:46;;;;;;;;;;;;;;;;;;343282;28;886;-75
2022/06/12 01:06:59;;;;;;;;;;;;;;;;;;343241;28;802;-75
2022/06/12 01:07:15;;;;;;;;;;;;;;;;;;343186;28;890;-74
2022/06/12 01:07:27;;;;;;;;;;;;;;;;;;343250;28;976;-75
2022/06/12 01:07:40;;;;;;;;;;;;;;;;;;343205;28;944;-75
2022/06/12 01:07:53;;;;;;;;;;;;;;;;;;343243;28;818;-75
2022/06/12 01:08:04;;;;;;;;;;;;;;;;;;343233;28;984;-75
2022/06/12 01:08:16;;;;;;;;;;;;;;;;;;343075;28;1338;-75
2022/06/12 01:08:28;;;;;;;;;;;;;;;;;;343167;28;965;-75
2022/06/12 01:08:39;;;;;;;;;;;;;;;;;;343203;28;901;-75
2022/06/12 01:08:49;;;;;;;;;;;;;;;;;;342928;28;1136;-75
2022/06/12 01:09:02;;;;;;;;;;;;;;;;;;343236;28;965;-75
2022/06/12 01:09:19;;;;;;;;;;;;;;;;;;343109;28;1069;-75
2022/06/12 01:09:32;;;;;;;;;;;;;;;;;;343183;28;996;-75
2022/06/12 01:09:44;;;;;;;;;;;;;;;;;;343255;28;999;-75
2022/06/12 01:09:56;;;;;;;;;;;;;;;;;;343266;28;790;-75
2022/06/12 01:10:08;;;;;;;;;;;;;;;;;;343228;28;838;-75
2022/06/12 01:10:20;;;;;;;;;;;;;;;;;;343163;28;1027;-75
2022/06/12 01:10:32;;;;;;;;;;;;;;;;;;343194;28;1734;-75
2022/06/12 01:10:46;;;;;;;;;;;;;;;;;;343124;28;1975;-75
2022/06/12 01:10:58;;;;;;;;;;;;;;;;;;343135;28;933;-75
2022/06/12 01:11:09;;;;;;;;;;;;;;;;;;343253;28;973;-75
2022/06/12 01:11:22;;;;;;;;;;;;;;;;;;343213;28;914;-75
2022/06/12 01:11:34;;;;;;;;;;;;;;;;;;343243;28;936;-75
2022/06/12 01:11:46;;;;;;;;;;;;;;;;;;343205;28;881;-75
2022/06/12 01:11:58;;;;;;;;;;;;;;;;;;343223;28;842;-75
2022/06/12 01:12:10;;;;;;;;;;;;;;;;;;343244;28;1040;-75
2022/06/12 01:12:23;;;;;;;;;;;;;;;;;;343244;28;830;-75
2022/06/12 01:12:37;;;;;;;;;;;;;;;;;;343108;28;1021;-75
2022/06/12 01:12:50;;;;;;;;;;;;;;;;;;343223;28;933;-75
2022/06/12 01:13:03;;;;;;;;;;;;;;;;;;343225;28;976;-75
2022/06/12 01:13:16;;;;;;;;;;;;;;;;;;343259;28;922;-75
2022/06/12 01:13:32;;;;;;;;;;;;;;;;;;343031;28;1423;-75
2022/06/12 01:13:44;;;;;;;;;;;;;;;;;;343273;28;862;-75
2022/06/12 01:13:54;;;;;;;;;;;;;;;;;;343215;28;985;-75
2022/06/12 01:14:06;;;;;;;;;;;;;;;;;;343177;28;1005;-75
2022/06/12 01:14:18;;;;;;;;;;;;;;;;;;343160;28;933;-75
2022/06/12 01:14:35;;;;;;;;;;;;;;;;;;343214;28;709;-75
2022/06/12 01:14:55;;;;;;;;;;;;;;;;;;343191;28;1002;-75
2022/06/12 01:15:08;;;;;;;;;;;;;;;;;;343188;28;845;-75
2022/06/12 01:15:23;;;;;;;;;;;;;;;;;;343148;28;925;-75
2022/06/12 01:15:39;;;;;;;;;;;;;;;;;;343209;28;940;-75
2022/06/12 01:15:54;;;;;;;;;;;;;;;;;;343286;28;815;-75
2022/06/12 01:16:07;;;;;;;;;;;;;;;;;;343199;28;917;-75
2022/06/12 01:16:19;;;;;;;;;;;;;;;;;;343224;28;949;-75
2022/06/12 01:16:30;;;;;;;;;;;;;;;;;;343269;28;875;-75
2022/06/12 01:16:45;;;;;;;;;;;;;;;;;;343230;28;865;-75
2022/06/12 01:16:57;;;;;;;;;;;;;;;;;;343168;28;929;-75
2022/06/12 01:17:07;;;;;;;;;;;;;;;;;;343217;28;961;-76
2022/06/12 01:17:19;;;;;;;;;;;;;;;;;;343239;28;1031;-75
2022/06/12 01:17:30;;;;;;;;;;;;;;;;;;343197;28;921;-75
2022/06/12 01:17:40;;;;;;;;;;;;;;;;;;343244;28;981;-75
2022/06/12 01:17:52;;;;;;;;;;;;;;;;;;343212;28;988;-75
2022/06/12 01:18:03;;;;;;;;;;;;;;;;;;343187;28;941;-75
2022/06/12 01:18:15;;;;;;;;;;;;;;;;;;343123;28;1377;-75
2022/06/12 01:18:28;;;;;;;;;;;;;;;;;;344086;28;984;-75
2022/06/12 01:18:42;;;;;;;;;;;;;;;;;;344667;28;829;-75
2022/06/12 01:18:54;;;;;;;;;;;;;;;;;;344551;28;826;-75
2022/06/12 01:19:06;;;;;;;;;;;;;;;;;;344536;28;945;-75
2022/06/12 01:19:35;;;;;;;;;;;;;;;;;;344522;28;1392;-75
2022/06/12 01:19:47;;;;;;;;;;;;;;;;;;344518;28;991;-75
2022/06/12 01:19:59;;;;;;;;;;;;;;;;;;344543;28;937;-75
2022/06/12 01:20:12;;;;;;;;;;;;;;;;;;344579;28;944;-75
2022/06/12 01:20:25;;;;;;;;;;;;;;;;;;344510;28;1063;-75
2022/06/12 01:20:43;;;;;;;;;;;;;;;;;;344536;28;946;-75
2022/06/12 01:20:53;;;;;;;;;;;;;;;;;;344565;28;870;-75
2022/06/12 01:21:16;;;;;;;;;;;;;;;;;;344548;28;874;-75
2022/06/12 01:21:47;;;;;;;;;;;;;;;;;;344557;28;980;-75
2022/06/12 01:22:16;;;;;;;;;;;;;;;;;;344551;28;945;-75
2022/06/12 01:22:38;;;;;;;;;;;;;;;;;;344492;28;882;-75
2022/06/12 01:23:18;;;;;;;;;;;;;;;;;;344579;28;849;-75
2022/06/12 01:23:28;;;;;;;;;;;;;;;;;;344412;28;765;-75
2022/06/12 01:23:38;;;;;;;;;;;;;;;;;;344593;28;885;-75
2022/06/12 01:23:54;;;;;;;;;;;;;;;;;;344499;28;933;-75
2022/06/12 01:24:15;;;;;;;;;;;;;;;;;;344565;28;921;-75
2022/06/12 01:24:40;;;;;;;;;;;;;;;;;;344539;28;898;-75
2022/06/12 01:25:13;;;;;;;;;;;;;;;;;;344526;28;1096;-75
2022/06/12 01:25:23;;;;;;;;;;;;;;;;;;344545;28;984;-76
2022/06/12 01:25:45;;;;;;;;;;;;;;;;;;344536;28;1000;-75
2022/06/12 01:26:14;;;;;;;;;;;;;;;;;;344471;28;926;-75
2022/06/12 01:26:30;;;;;;;;;;;;;;;;;;344543;28;980;-75
2022/06/12 01:26:53;;;;;;;;;;;;;;;;;;344538;28;864;-75
2022/06/12 01:27:33;;;;;;;;;;;;;;;;;;344580;28;1004;-75
2022/06/12 01:27:51;;;;;;;;;;;;;;;;;;341725;29;786;-75
2022/06/12 01:28:02;;;;;;;;;;;;;;;;;;341764;29;924;-75
2022/06/12 01:28:22;;;;;;;;;;;;;;;;;;341010;29;1336;-75
2022/06/12 01:28:38;;;;;;;;;;;;;;;;;;341685;29;910;-75
2022/06/12 01:29:09;;;;;;;;;;;;;;;;;;341728;29;910;-75
2022/06/12 01:29:19;;;;;;;;;;;;;;;;;;341629;29;1001;-75
2022/06/12 01:29:35;;;;;;;;;;;;;;;;;;341803;29;882;-75
2022/06/12 01:29:55;;;;;;;;;;;;;;;;;;342670;28;963;-75
2022/06/12 01:30:08;;;;;;;;;;;;;;;;;;344541;28;864;-76
2022/06/12 01:30:30;;;;;;;;;;;;;;;;;;343208;28;1352;-75
2022/06/12 01:31:00;;;;;;;;;;;;;;;;;;343211;28;1977;-75
2022/06/12 01:31:18;;;;;;;;;;;;;;;;;;343181;28;794;-75
2022/06/12 01:31:48;;;;;;;;;;;;;;;;;;343191;28;929;-75
2022/06/12 01:32:00;;;;;;;;;;;;;;;;;;343359;28;1396;-75
2022/06/12 01:32:29;;;;;;;;;;;;;;;;;;344543;28;901;-75
2022/06/12 01:32:39;;;;;;;;;;;;;;;;;;344525;28;945;-75
2022/06/12 01:32:55;;;;;;;;;;;;;;;;;;344548;28;803;-75
2022/06/12 01:33:24;;;;;;;;;;;;;;;;;;344547;28;850;-75
2022/06/12 01:33:34;;;;;;;;;;;;;;;;;;344468;28;894;-75
2022/06/12 01:34:08;;;;;;;;;;;;;;;;;;344550;28;980;-75
2022/06/12 01:34:18;;;;;;;;;;;;;;;;;;344523;28;793;-75
2022/06/12 01:34:44;;;;;;;;;;;;;;;;;;344562;28;775;-75
2022/06/12 01:34:59;;;;;;;;;;;;;;;;;;344587;28;921;-74
2022/06/12 01:35:39;;;;;;;;;;;;;;;;;;344559;28;937;-75